Time;durP1;ratioP1;P1;durP2;ratioP2;P2;SDS_P1;SDS_P2;PMS_P1;PMS_P2;Temp;Humidity;BMP_temperature;BMP_pressure;BME280_temperature;BME280_humidity;BME280_pressure;Samples;Min_cycle;Max_cycle;Signal;HPM_P1;HPM_P2
2023/06/20 00:01:00;;;;;;;14.05;9.25;;;19.50;99.90;;;;;;5072784;28;20041;-84
2023/06/20 00:03:26;;;;;;;14.15;9.18;;;19.50;99.90;;;;;;5073206;28;20032;-84
2023/06/20 00:05:52;;;;;;;12.27;8.73;;;19.50;99.90;;;;;;5072882;28;20090;-84
2023/06/20 00:08:17;;;;;;;13.00;9.30;;;19.50;99.90;;;;;;5056649;28;20040;-84
2023/06/20 00:10:43;;;;;;;13.88;9.52;;;19.50;99.90;;;;;;5072557;28;20510;-84
2023/06/20 00:13:08;;;;;;;13.20;10.13;;;19.50;99.90;;;;;;5072848;28;20072;-84
2023/06/20 00:15:34;;;;;;;13.35;9.55;;;19.50;99.90;;;;;;5056234;28;20041;-84
2023/06/20 00:18:00;;;;;;;13.45;9.48;;;19.40;99.90;;;;;;5073143;28;20078;-83
2023/06/20 00:20:30;;;;;;;11.75;9.45;;;19.40;99.90;;;;;;5072480;28;20505;-84
2023/06/20 00:22:56;;;;;;;12.20;8.85;;;19.40;99.90;;;;;;5055995;28;20047;-83
2023/06/20 00:25:22;;;;;;;13.55;9.13;;;19.40;99.90;;;;;;5072418;28;20048;-84
2023/06/20 00:27:48;;;;;;;13.05;9.80;;;19.40;99.90;;;;;;5056111;28;20039;-84
2023/06/20 00:30:14;;;;;;;12.63;9.57;;;19.40;99.90;;;;;;5072658;28;20142;-84
2023/06/20 00:32:40;;;;;;;14.88;10.07;;;19.40;99.90;;;;;;5072506;28;20037;-84
2023/06/20 00:35:06;;;;;;;12.70;9.18;;;19.40;99.90;;;;;;5055737;28;20044;-83
2023/06/20 00:37:34;;;;;;;12.77;9.52;;;19.40;99.90;;;;;;5072454;28;20085;-83
2023/06/20 00:39:59;;;;;;;13.82;9.93;;;19.40;99.90;;;;;;5071381;28;20126;-83
2023/06/20 00:42:25;;;;;;;14.30;9.48;;;19.50;99.90;;;;;;5072308;28;20083;-84
2023/06/20 00:44:51;;;;;;;14.40;10.38;;;19.50;99.90;;;;;;5072319;28;20115;-83
2023/06/20 00:47:17;;;;;;;11.20;9.90;;;19.50;99.90;;;;;;5072296;28;20041;-84
2023/06/20 00:49:48;;;;;;;15.30;10.73;;;19.50;99.90;;;;;;5072049;28;20032;-84
2023/06/20 00:52:23;;;;;;;13.73;10.73;;;19.40;99.90;;;;;;5056025;28;20512;-84
2023/06/20 00:54:49;;;;;;;15.15;11.68;;;19.40;99.90;;;;;;5072138;28;20490;-83
2023/06/20 00:57:17;;;;;;;15.15;11.18;;;19.40;99.90;;;;;;5071892;28;20036;-84
2023/06/20 00:59:44;;;;;;;16.75;11.95;;;19.50;99.90;;;;;;5071738;28;20044;-83
2023/06/20 01:02:10;;;;;;;15.07;11.43;;;19.40;99.90;;;;;;5072142;28;20056;-84
2023/06/20 01:04:59;;;;;;;13.13;11.45;;;19.50;99.90;;;;;;5071912;28;20720;-84
2023/06/20 01:07:49;;;;;;;14.02;11.38;;;19.50;99.90;;;;;;5071932;28;20043;-84
2023/06/20 01:10:17;;;;;;;14.50;11.18;;;19.50;99.90;;;;;;5071801;28;20482;-83
2023/06/20 01:12:54;;;;;;;14.10;11.30;;;19.50;99.90;;;;;;5071557;28;20128;-84
2023/06/20 01:15:44;;;;;;;13.93;11.48;;;19.50;99.90;;;;;;5072014;28;20102;-83
2023/06/20 01:18:44;;;;;;;15.30;12.02;;;19.50;99.90;;;;;;5071978;28;20051;-84
2023/06/20 01:21:14;;;;;;;15.27;12.27;;;19.50;99.90;;;;;;5028415;28;20532;-84
2023/06/20 01:23:49;;;;;;;17.02;12.48;;;19.50;99.90;;;;;;5071642;28;20040;-84
2023/06/20 01:26:30;;;;;;;14.63;12.10;;;19.50;99.90;;;;;;5071284;28;20127;-84
2023/06/20 01:29:09;;;;;;;14.27;12.50;;;19.50;99.90;;;;;;5071577;28;20045;-84
2023/06/20 01:31:37;;;;;;;14.18;12.10;;;19.50;99.90;;;;;;5071056;28;20045;-84
2023/06/20 01:34:11;;;;;;;14.35;11.75;;;19.50;99.90;;;;;;5071382;28;20071;-84
2023/06/20 01:36:40;;;;;;;15.20;12.60;;;19.50;99.90;;;;;;5071622;28;20644;-84
2023/06/20 01:39:10;;;;;;;15.50;13.13;;;19.50;99.90;;;;;;5071259;28;20048;-84
2023/06/20 01:41:39;;;;;;;15.25;13.15;;;19.50;99.90;;;;;;5054308;28;20050;-84
2023/06/20 01:44:09;;;;;;;15.90;12.35;;;19.50;99.90;;;;;;5071109;28;20440;-84
2023/06/20 01:46:35;;;;;;;15.45;13.25;;;19.40;99.90;;;;;;5071048;28;20127;-84
2023/06/20 01:49:03;;;;;;;17.80;14.30;;;19.40;99.90;;;;;;5054615;28;20128;-84
2023/06/20 01:51:30;;;;;;;17.02;14.20;;;19.40;99.90;;;;;;5070667;28;20045;-84
2023/06/20 01:54:00;;;;;;;16.75;13.88;;;19.40;99.90;;;;;;5070934;28;20037;-84
2023/06/20 01:56:26;;;;;;;16.30;13.57;;;19.40;99.90;;;;;;5070761;28;20086;-84
2023/06/20 01:58:53;;;;;;;17.15;13.57;;;19.40;99.90;;;;;;5070882;28;20409;-84
2023/06/20 02:01:21;;;;;;;16.20;14.07;;;19.40;99.90;;;;;;5070846;28;20468;-84
2023/06/20 02:03:49;;;;;;;17.02;14.55;;;19.40;99.90;;;;;;5070821;28;20096;-84
2023/06/20 02:06:17;;;;;;;17.90;14.65;;;19.40;99.90;;;;;;5070761;28;20041;-84
2023/06/20 02:08:42;;;;;;;15.43;13.77;;;19.40;99.90;;;;;;5054000;28;20051;-84
2023/06/20 02:11:09;;;;;;;16.60;14.38;;;19.40;99.90;;;;;;5070417;28;20059;-84
2023/06/20 02:13:36;;;;;;;16.48;14.77;;;19.40;99.90;;;;;;5070702;28;20047;-84
2023/06/20 02:16:05;;;;;;;17.92;14.52;;;19.40;99.90;;;;;;5054285;28;20500;-84
2023/06/20 02:18:31;;;;;;;16.88;13.63;;;19.40;99.90;;;;;;5053997;28;20040;-84
2023/06/20 02:21:02;;;;;;;16.65;14.88;;;19.40;99.90;;;;;;5070234;28;20040;-84
2023/06/20 02:23:29;;;;;;;17.48;14.73;;;19.40;99.90;;;;;;5053889;28;20043;-84
2023/06/20 02:26:00;;;;;;;16.65;14.85;;;19.40;99.90;;;;;;5053549;28;20051;-84
2023/06/20 02:28:28;;;;;;;15.85;14.13;;;19.40;99.90;;;;;;5070727;28;20509;-84
2023/06/20 02:30:55;;;;;;;17.33;14.80;;;19.40;99.90;;;;;;5070390;28;20532;-84
2023/06/20 02:33:22;;;;;;;16.63;13.85;;;19.30;99.90;;;;;;5070526;28;20120;-84
2023/06/20 02:35:50;;;;;;;17.75;15.10;;;19.40;99.90;;;;;;5070367;28;20561;-84
2023/06/20 02:38:16;;;;;;;18.55;15.43;;;19.30;99.90;;;;;;5053814;28;20040;-84
2023/06/20 02:40:41;;;;;;;18.95;14.82;;;19.30;99.90;;;;;;5070050;28;20457;-84
2023/06/20 02:43:08;;;;;;;18.58;15.25;;;19.30;99.90;;;;;;5053629;28;20036;-84
2023/06/20 02:45:35;;;;;;;16.38;14.43;;;19.30;99.90;;;;;;5053606;28;20044;-84
2023/06/20 02:48:15;;;;;;;18.35;16.45;;;19.30;99.90;;;;;;5070309;28;20041;-84
2023/06/20 02:51:06;;;;;;;17.00;14.30;;;19.30;99.90;;;;;;5070298;28;20101;-84
2023/06/20 02:54:15;;;;;;;17.63;14.75;;;19.30;99.90;;;;;;5060632;28;20045;-84
2023/06/20 02:56:43;;;;;;;18.40;15.40;;;19.20;99.90;;;;;;5070246;28;20119;-84
2023/06/20 02:59:11;;;;;;;17.50;15.55;;;19.20;99.90;;;;;;5053503;28;20048;-84
2023/06/20 03:01:39;;;;;;;19.75;15.75;;;19.20;99.90;;;;;;5053276;28;20161;-84
2023/06/20 03:04:06;;;;;;;19.00;15.00;;;19.30;99.90;;;;;;5057450;28;20032;-84
2023/06/20 03:06:34;;;;;;;17.13;14.60;;;19.20;99.90;;;;;;5074198;28;20040;-84
2023/06/20 03:09:02;;;;;;;19.73;15.60;;;19.20;99.90;;;;;;5074109;28;20505;-84
2023/06/20 03:11:29;;;;;;;17.85;15.95;;;19.20;99.90;;;;;;5073720;28;20125;-84
2023/06/20 03:13:54;;;;;;;19.38;16.73;;;19.20;99.90;;;;;;5074293;28;20040;-84
2023/06/20 03:16:20;;;;;;;19.08;15.88;;;19.20;99.90;;;;;;5073956;28;20090;-84
2023/06/20 03:18:46;;;;;;;17.33;15.52;;;19.20;99.90;;;;;;5074211;28;20045;-84
2023/06/20 03:21:12;;;;;;;18.77;16.88;;;19.20;99.90;;;;;;5073505;28;20053;-84
2023/06/20 03:23:38;;;;;;;17.42;15.63;;;19.20;99.90;;;;;;5073891;28;20044;-84
2023/06/20 03:26:06;;;;;;;18.15;16.08;;;19.20;99.90;;;;;;5057017;28;20086;-84
2023/06/20 03:28:31;;;;;;;17.50;15.60;;;19.10;99.90;;;;;;5057463;28;20385;-83
2023/06/20 03:30:57;;;;;;;19.15;16.25;;;19.20;99.90;;;;;;5073333;28;20028;-84
2023/06/20 03:33:22;;;;;;;17.75;15.85;;;19.10;99.90;;;;;;5073980;28;20423;-84
2023/06/20 03:35:48;;;;;;;19.02;16.50;;;19.20;99.90;;;;;;5073651;28;20048;-84
2023/06/20 03:38:14;;;;;;;17.15;15.30;;;19.20;99.90;;;;;;5073639;28;20475;-84
2023/06/20 03:40:39;;;;;;;18.15;16.17;;;19.20;99.90;;;;;;5073179;28;20040;-84
2023/06/20 03:43:05;;;;;;;19.20;15.95;;;19.10;99.90;;;;;;5073503;28;20123;-84
2023/06/20 03:45:31;;;;;;;19.35;17.30;;;19.10;99.90;;;;;;5073681;28;20036;-84
2023/06/20 03:47:56;;;;;;;17.98;14.95;;;19.10;99.90;;;;;;5073394;28;20041;-84
2023/06/20 03:50:22;;;;;;;17.75;15.75;;;19.10;99.90;;;;;;5073444;28;20048;-84
2023/06/20 03:52:47;;;;;;;17.90;16.00;;;19.10;99.90;;;;;;5073223;28;20482;-84
2023/06/20 03:55:13;;;;;;;16.88;14.98;;;19.10;99.90;;;;;;5073302;28;20662;-84
2023/06/20 03:57:38;;;;;;;19.42;16.63;;;19.10;99.90;;;;;;5072993;28;20028;-84
2023/06/20 04:00:09;;;;;;;18.17;15.63;;;19.10;99.90;;;;;;5072963;28;20040;-84
2023/06/20 04:02:35;;;;;;;18.25;15.43;;;19.10;99.90;;;;;;5056431;28;20375;-84
2023/06/20 04:05:01;;;;;;;17.67;15.65;;;19.10;99.90;;;;;;5056506;28;20047;-84
2023/06/20 04:07:26;;;;;;;17.65;14.93;;;19.20;99.90;;;;;;5056299;28;20110;-84
2023/06/20 04:09:52;;;;;;;16.05;13.93;;;19.10;99.90;;;;;;5072647;28;20120;-84
2023/06/20 04:12:17;;;;;;;17.00;15.20;;;19.20;99.90;;;;;;5073143;28;20429;-85
2023/06/20 04:14:43;;;;;;;17.70;15.85;;;19.10;99.90;;;;;;5054942;28;20494;-84
2023/06/20 04:17:09;;;;;;;17.05;14.65;;;19.20;99.90;;;;;;5073214;28;20045;-84
2023/06/20 04:19:34;;;;;;;17.15;15.00;;;19.20;99.90;;;;;;5072523;28;20067;-84
2023/06/20 04:22:00;;;;;;;18.33;15.60;;;19.10;99.90;;;;;;5056002;28;20040;-84
2023/06/20 04:24:26;;;;;;;17.52;14.98;;;19.20;99.90;;;;;;5056366;28;20036;-84
2023/06/20 04:26:54;;;;;;;16.65;14.95;;;19.10;99.90;;;;;;5055862;28;20490;-84
2023/06/20 04:29:20;;;;;;;16.63;14.82;;;19.10;99.90;;;;;;5072762;28;20041;-84
2023/06/20 04:31:45;;;;;;;17.05;14.70;;;19.20;99.90;;;;;;5072371;28;20048;-84
2023/06/20 04:34:11;;;;;;;16.13;14.45;;;19.20;99.90;;;;;;5055899;28;20032;-84
2023/06/20 04:36:36;;;;;;;17.30;14.82;;;19.20;99.90;;;;;;5072687;28;20093;-84
2023/06/20 04:39:02;;;;;;;17.30;15.23;;;19.20;99.90;;;;;;5072534;28;20406;-84
2023/06/20 04:41:28;;;;;;;19.23;15.25;;;19.20;99.90;;;;;;5072104;28;20391;-84
2023/06/20 04:43:53;;;;;;;15.98;14.27;;;19.20;99.90;;;;;;5072650;28;20036;-84
2023/06/20 04:46:19;;;;;;;17.33;14.82;;;19.30;99.90;;;;;;5072257;28;20631;-84
2023/06/20 04:48:47;;;;;;;17.83;14.50;;;19.30;99.90;;;;;;5055607;28;20032;-83
2023/06/20 04:51:14;;;;;;;16.92;15.23;;;19.30;99.90;;;;;;5070279;28;20040;-84
2023/06/20 04:53:39;;;;;;;17.90;15.38;;;19.30;99.90;;;;;;5055016;28;20546;-84
2023/06/20 04:56:05;;;;;;;18.25;15.18;;;19.30;99.90;;;;;;5071692;28;20045;-85
2023/06/20 04:58:31;;;;;;;16.80;14.85;;;19.40;99.90;;;;;;5071823;28;20036;-84
2023/06/20 05:01:00;;;;;;;18.90;14.55;;;19.40;99.90;;;;;;5071639;28;20043;-84
2023/06/20 05:03:26;;;;;;;16.88;14.15;;;19.40;99.90;;;;;;5071568;28;20093;-84
2023/06/20 05:05:52;;;;;;;18.35;15.23;;;19.40;99.90;;;;;;5054453;28;20067;-84
2023/06/20 05:08:18;;;;;;;16.15;13.90;;;19.50;99.90;;;;;;5071701;28;20445;-84
2023/06/20 05:10:44;;;;;;;15.60;13.95;;;19.50;99.90;;;;;;5054373;28;20423;-84
2023/06/20 05:13:09;;;;;;;16.10;14.20;;;19.50;99.90;;;;;;5071276;28;20401;-84
2023/06/20 05:15:35;;;;;;;15.80;13.93;;;19.60;99.90;;;;;;5071282;28;20036;-84
2023/06/20 05:18:01;;;;;;;16.10;14.40;;;19.60;99.90;;;;;;5071380;28;20040;-83
2023/06/20 05:20:26;;;;;;;18.05;15.32;;;19.60;99.90;;;;;;5070862;28;20537;-84
2023/06/20 05:22:52;;;;;;;15.18;13.57;;;19.60;99.90;;;;;;5071315;28;20517;-84
2023/06/20 05:25:18;;;;;;;16.42;13.95;;;19.60;99.90;;;;;;5054026;28;20043;-84
2023/06/20 05:27:44;;;;;;;15.32;13.73;;;19.70;99.90;;;;;;5071022;28;20451;-84
2023/06/20 05:30:10;;;;;;;17.17;15.20;;;19.70;99.90;;;;;;5070736;28;20041;-84
2023/06/20 05:32:35;;;;;;;16.35;14.27;;;19.70;99.90;;;;;;5070832;28;20035;-84
2023/06/20 05:35:01;;;;;;;16.35;14.27;;;19.80;99.90;;;;;;5070977;28;20174;-84
2023/06/20 05:37:30;;;;;;;17.40;15.10;;;19.80;99.90;;;;;;5070734;28;20489;-84
2023/06/20 05:39:57;;;;;;;19.23;15.73;;;19.80;99.90;;;;;;5053918;28;20117;-84
2023/06/20 05:42:22;;;;;;;18.92;16.10;;;19.90;99.90;;;;;;5070693;28;20036;-84
2023/06/20 05:44:48;;;;;;;17.85;15.82;;;19.90;99.90;;;;;;5070590;28;20048;-84
2023/06/20 05:47:17;;;;;;;17.83;15.98;;;19.90;99.90;;;;;;5054001;28;20049;-84
2023/06/20 05:49:47;;;;;;;19.08;16.13;;;20.00;99.90;;;;;;5070099;28;20040;-84
2023/06/20 05:52:14;;;;;;;18.25;15.70;;;20.00;99.90;;;;;;5070673;28;20028;-84
2023/06/20 05:54:43;;;;;;;19.45;16.73;;;20.10;99.90;;;;;;5070573;28;20044;-84
2023/06/20 05:57:08;;;;;;;18.08;15.93;;;20.10;99.90;;;;;;5053976;28;20036;-84
2023/06/20 05:59:34;;;;;;;18.90;16.90;;;20.10;99.90;;;;;;5070144;28;20085;-84
2023/06/20 06:02:00;;;;;;;17.92;16.02;;;20.10;99.90;;;;;;5070296;28;20040;-84
2023/06/20 06:04:25;;;;;;;18.70;16.75;;;20.20;99.90;;;;;;5053902;28;20040;-84
2023/06/20 06:06:52;;;;;;;19.45;17.27;;;20.20;99.90;;;;;;5070185;28;20490;-85
2023/06/20 06:09:18;;;;;;;18.50;16.42;;;20.20;99.90;;;;;;5070380;28;20049;-84
2023/06/20 06:11:45;;;;;;;19.58;17.10;;;20.20;99.90;;;;;;5069820;28;20040;-84
2023/06/20 06:14:11;;;;;;;19.60;16.90;;;20.20;99.90;;;;;;5070150;28;20417;-84
2023/06/20 06:16:37;;;;;;;18.58;16.45;;;20.30;99.90;;;;;;5070095;28;20041;-84
2023/06/20 06:19:03;;;;;;;19.00;17.05;;;20.30;99.90;;;;;;5069917;28;20048;-84
2023/06/20 06:21:28;;;;;;;19.42;17.00;;;20.30;99.90;;;;;;5069708;28;20044;-84
2023/06/20 06:23:54;;;;;;;18.90;16.95;;;20.30;99.90;;;;;;5070099;28;20052;-84
2023/06/20 06:26:19;;;;;;;20.05;17.95;;;20.40;99.90;;;;;;5070172;28;20055;-84
2023/06/20 06:28:45;;;;;;;18.35;16.38;;;20.40;99.90;;;;;;5069889;28;20121;-84
2023/06/20 06:31:14;;;;;;;17.67;15.88;;;20.40;99.90;;;;;;5069701;28;20040;-84
2023/06/20 06:33:42;;;;;;;18.70;16.73;;;20.50;99.90;;;;;;5070133;28;20818;-84
2023/06/20 06:36:08;;;;;;;18.25;16.45;;;20.50;99.90;;;;;;5070099;28;20490;-85
2023/06/20 06:38:34;;;;;;;17.92;16.13;;;20.50;99.90;;;;;;5052039;28;20052;-84
2023/06/20 06:41:00;;;;;;;16.70;15.00;;;20.60;99.90;;;;;;5069693;28;20049;-84
2023/06/20 06:43:25;;;;;;;18.80;16.80;;;20.60;99.90;;;;;;5070298;28;20040;-84
2023/06/20 06:45:52;;;;;;;18.33;16.27;;;20.70;99.90;;;;;;5069684;28;20072;-84
2023/06/20 06:48:18;;;;;;;17.55;15.75;;;20.70;99.90;;;;;;5069989;28;20406;-84
2023/06/20 06:50:44;;;;;;;18.10;16.25;;;20.70;99.90;;;;;;5068982;28;20481;-84
2023/06/20 06:53:13;;;;;;;16.45;14.82;;;20.70;99.90;;;;;;5069314;28;20526;-84
2023/06/20 06:55:45;;;;;;;17.85;15.95;;;20.80;99.90;;;;;;5069350;28;20090;-85
2023/06/20 06:58:11;;;;;;;17.38;15.68;;;20.80;99.90;;;;;;5069416;28;20119;-84
2023/06/20 07:00:37;;;;;;;17.98;16.25;;;20.80;99.90;;;;;;5069013;28;20124;-84
2023/06/20 07:03:03;;;;;;;17.08;15.27;;;20.90;99.90;;;;;;5069879;28;20131;-85
2023/06/20 07:05:28;;;;;;;19.27;16.40;;;20.90;99.90;;;;;;5053040;28;20040;-84
2023/06/20 07:07:54;;;;;;;17.77;15.98;;;20.90;99.90;;;;;;5069875;28;20048;-84
2023/06/20 07:10:19;;;;;;;17.38;15.68;;;20.90;99.90;;;;;;5069401;28;20119;-84
2023/06/20 07:12:45;;;;;;;18.58;16.77;;;20.90;99.90;;;;;;5052801;28;20033;-84
2023/06/20 07:15:11;;;;;;;19.05;16.38;;;20.90;99.90;;;;;;5069589;28;20445;-85
2023/06/20 07:17:36;;;;;;;17.85;15.93;;;20.90;99.90;;;;;;5069538;28;20036;-85
2023/06/20 07:20:07;;;;;;;19.00;17.00;;;21.00;99.90;;;;;;5069438;28;20051;-84
2023/06/20 07:22:33;;;;;;;18.55;16.52;;;21.00;99.90;;;;;;5069817;28;20080;-84
2023/06/20 07:24:59;;;;;;;18.95;16.92;;;21.00;99.90;;;;;;5069673;28;20502;-84
2023/06/20 07:27:24;;;;;;;19.45;17.55;;;21.00;99.90;;;;;;5069470;28;20083;-84
2023/06/20 07:29:50;;;;;;;18.52;15.70;;;21.00;99.90;;;;;;5068753;28;20044;-84
2023/06/20 07:32:16;;;;;;;19.40;16.95;;;21.00;99.90;;;;;;5068711;28;20119;-84
2023/06/20 07:34:42;;;;;;;19.13;16.73;;;21.00;99.90;;;;;;5068631;28;20086;-84
2023/06/20 07:37:07;;;;;;;18.67;16.25;;;21.10;99.90;;;;;;5069321;28;20091;-85
2023/06/20 07:39:33;;;;;;;19.33;16.20;;;21.10;99.90;;;;;;5068701;28;20040;-84
2023/06/20 07:41:58;;;;;;;20.15;16.40;;;21.10;99.90;;;;;;5069050;28;20102;-84
2023/06/20 07:44:24;;;;;;;18.85;16.83;;;21.10;99.90;;;;;;5069238;28;20055;-84
2023/06/20 07:46:50;;;;;;;17.05;15.35;;;21.10;99.90;;;;;;5051715;28;20068;-84
2023/06/20 07:49:15;;;;;;;19.35;17.40;;;21.20;99.90;;;;;;5070963;28;20119;-84
2023/06/20 07:51:42;;;;;;;19.80;16.67;;;21.20;99.90;;;;;;5073098;28;20085;-84
2023/06/20 07:54:08;;;;;;;20.50;17.30;;;21.20;99.90;;;;;;5056874;28;20033;-85
2023/06/20 07:56:33;;;;;;;18.75;16.92;;;21.30;99.90;;;;;;5073296;28;20536;-84
2023/06/20 07:58:59;;;;;;;19.08;16.83;;;21.30;99.90;;;;;;5056388;28;20135;-84
2023/06/20 08:01:25;;;;;;;17.83;15.93;;;21.40;99.90;;;;;;5055968;28;20033;-84
2023/06/20 08:03:50;;;;;;;18.45;15.82;;;21.50;99.90;;;;;;5072825;28;20517;-84
2023/06/20 08:06:16;;;;;;;18.40;16.38;;;21.60;99.90;;;;;;5073204;28;20037;-84
2023/06/20 08:08:41;;;;;;;17.92;16.13;;;21.70;99.90;;;;;;5056447;28;20544;-84
2023/06/20 08:11:07;;;;;;;17.90;16.10;;;21.70;99.90;;;;;;5056201;28;20028;-84
2023/06/20 08:13:33;;;;;;;18.55;16.60;;;21.80;99.90;;;;;;5072845;28;20486;-84
2023/06/20 08:15:58;;;;;;;20.50;18.50;;;21.90;99.90;;;;;;5072836;28;20049;-84
2023/06/20 08:18:24;;;;;;;18.08;16.33;;;22.00;99.90;;;;;;5072899;28;20046;-85
2023/06/20 08:20:50;;;;;;;16.95;15.15;;;22.10;99.90;;;;;;5072439;28;20063;-84
2023/06/20 08:23:25;;;;;;;17.77;16.00;;;22.20;99.90;;;;;;5072822;28;20045;-84
2023/06/20 08:25:55;;;;;;;18.17;16.15;;;22.30;99.90;;;;;;5056048;28;20076;-84
2023/06/20 08:28:24;;;;;;;16.73;14.93;;;22.40;99.90;;;;;;5072544;28;20036;-84
2023/06/20 08:30:50;;;;;;;15.90;14.20;;;22.60;99.90;;;;;;5072288;28;20037;-84
2023/06/20 08:33:16;;;;;;;15.30;13.75;;;22.70;99.90;;;;;;5072314;28;20033;-85
2023/06/20 08:35:42;;;;;;;15.80;14.20;;;22.80;99.90;;;;;;5055964;28;20059;-84
2023/06/20 08:38:09;;;;;;;18.50;15.27;;;22.90;99.90;;;;;;5072552;28;20072;-85
2023/06/20 08:40:35;;;;;;;15.82;14.32;;;23.00;99.90;;;;;;5055482;28;20036;-85
2023/06/20 08:43:01;;;;;;;14.95;13.15;;;23.00;99.90;;;;;;5072292;28;20037;-84
2023/06/20 08:45:27;;;;;;;14.90;13.30;;;23.20;99.90;;;;;;5070013;28;20052;-84
2023/06/20 08:47:58;;;;;;;14.07;12.65;;;23.30;99.90;;;;;;5071888;28;20040;-85
2023/06/20 08:50:24;;;;;;;14.93;12.68;;;23.50;99.90;;;;;;5071562;28;20067;-85
2023/06/20 08:52:54;;;;;;;13.95;12.55;;;23.60;99.90;;;;;;5071786;28;20048;-85
2023/06/20 08:55:21;;;;;;;14.43;12.20;;;23.70;99.90;;;;;;5054812;28;20119;-85
2023/06/20 08:57:46;;;;;;;13.32;11.80;;;23.80;99.90;;;;;;5072008;28;20501;-84
2023/06/20 09:00:23;;;;;;;14.38;11.43;;;23.90;99.90;;;;;;5070593;28;20525;-85
2023/06/20 09:02:50;;;;;;;13.35;11.65;;;24.00;99.90;;;;;;5071513;28;20044;-85
2023/06/20 09:05:16;;;;;;;12.85;10.80;;;24.10;99.90;;;;;;5071850;28;20082;-85
2023/06/20 09:07:42;;;;;;;12.93;10.60;;;24.10;99.90;;;;;;5071262;28;20387;-86
2023/06/20 09:10:11;;;;;;;12.73;10.82;;;24.20;99.90;;;;;;5071254;28;20536;-85
2023/06/20 09:12:51;;;;;;;14.18;11.00;;;24.30;99.90;;;;;;5071383;28;20063;-85
2023/06/20 09:15:22;;;;;;;12.63;11.32;;;24.40;99.90;;;;;;5071327;28;20040;-85
2023/06/20 09:17:56;;;;;;;11.80;10.48;;;24.50;99.90;;;;;;5070462;28;20546;-85
2023/06/20 09:20:26;;;;;;;12.43;10.48;;;24.60;99.90;;;;;;5069841;28;20506;-85
2023/06/20 09:22:52;;;;;;;13.13;10.70;;;24.70;99.90;;;;;;5070650;28;20029;-85
2023/06/20 09:25:22;;;;;;;14.65;10.57;;;24.70;99.90;;;;;;5065357;28;20093;-85
2023/06/20 09:27:48;;;;;;;13.13;10.25;;;24.80;99.90;;;;;;5054358;28;20041;-85
2023/06/20 09:30:14;;;;;;;12.82;9.90;;;24.80;99.90;;;;;;5054096;28;20450;-85
2023/06/20 09:32:41;;;;;;;11.48;9.57;;;24.90;99.90;;;;;;5071187;28;20496;-85
2023/06/20 09:35:12;;;;;;;11.65;9.23;;;25.00;99.90;;;;;;5054510;28;20055;-85
2023/06/20 09:37:42;;;;;;;12.67;9.37;;;25.10;99.90;;;;;;5071030;28;20043;-85
2023/06/20 09:40:16;;;;;;;11.38;8.15;;;25.20;99.90;;;;;;5070393;28;20635;-85
2023/06/20 09:42:43;;;;;;;11.27;8.82;;;25.30;99.90;;;;;;5071878;28;20040;-85
2023/06/20 09:45:10;;;;;;;10.13;8.13;;;25.30;99.90;;;;;;5054009;28;20131;-85
2023/06/20 09:47:38;;;;;;;12.57;8.05;;;25.40;99.90;;;;;;5070357;28;20600;-85
2023/06/20 09:50:21;;;;;;;9.40;7.60;;;25.50;99.90;;;;;;5070595;28;20403;-85
2023/06/20 09:52:54;;;;;;;10.65;8.05;;;25.60;99.90;;;;;;5053934;28;20040;-85
2023/06/20 09:55:21;;;;;;;11.43;8.30;;;25.70;99.20;;;;;;5070428;28;20041;-85
2023/06/20 09:57:53;;;;;;;11.40;8.52;;;25.70;98.70;;;;;;5053559;28;20067;-85
2023/06/20 10:00:19;;;;;;;11.38;8.40;;;25.90;99.60;;;;;;5053315;28;20125;-85
2023/06/20 10:02:46;;;;;;;10.85;7.85;;;25.90;98.30;;;;;;5052727;28;20048;-85
2023/06/20 10:05:14;;;;;;;9.52;7.43;;;25.90;97.60;;;;;;5068741;28;20040;-85
2023/06/20 10:07:41;;;;;;;11.25;7.30;;;26.00;97.80;;;;;;5065122;28;20551;-85
2023/06/20 10:10:08;;;;;;;9.82;7.07;;;26.00;97.80;;;;;;5068021;28;20105;-85
2023/06/20 10:12:35;;;;;;;10.73;7.38;;;26.00;97.10;;;;;;5050751;28;20040;-85
2023/06/20 10:15:03;;;;;;;10.65;7.75;;;26.10;97.10;;;;;;5068678;28;20032;-85
2023/06/20 10:17:38;;;;;;;11.73;8.45;;;26.10;97.20;;;;;;5068601;28;20040;-85
2023/06/20 10:20:08;;;;;;;9.70;7.05;;;26.20;96.80;;;;;;5049915;28;20561;-85
2023/06/20 10:22:43;;;;;;;11.60;6.72;;;26.20;96.80;;;;;;5069742;28;20044;-85
2023/06/20 10:25:14;;;;;;;10.82;6.60;;;26.30;96.50;;;;;;5068129;28;20073;-85
2023/06/20 10:27:56;;;;;;;8.65;6.05;;;26.30;94.90;;;;;;5052821;28;20036;-86
2023/06/20 10:30:43;;;;;;;9.55;7.00;;;26.30;94.60;;;;;;5066825;28;20036;-85
2023/06/20 10:33:10;;;;;;;9.70;7.18;;;26.30;95.00;;;;;;5084768;28;20036;-85
2023/06/20 10:36:16;;;;;;;11.02;6.70;;;26.40;94.50;;;;;;5070008;28;20502;-86
2023/06/20 10:38:50;;;;;;;8.95;6.45;;;26.40;95.00;;;;;;4992021;28;20073;-85
2023/06/20 10:41:23;;;;;;;10.48;6.95;;;26.50;95.00;;;;;;5008532;28;20583;-86
2023/06/20 10:43:57;;;;;;;10.07;6.68;;;26.60;94.10;;;;;;5009078;28;20737;-86
2023/06/20 10:46:29;;;;;;;9.80;6.75;;;26.60;93.30;;;;;;4976403;28;20049;-86
2023/06/20 10:48:55;;;;;;;10.32;6.60;;;26.60;93.00;;;;;;5008971;28;20093;-86
2023/06/20 10:51:20;;;;;;;8.75;6.35;;;26.60;92.40;;;;;;4991961;28;20065;-86
2023/06/20 10:53:46;;;;;;;9.88;6.30;;;26.70;92.30;;;;;;4976092;28;20124;-86
2023/06/20 10:56:37;;;;;;;8.70;5.97;;;26.70;91.90;;;;;;4992273;28;20053;-86
2023/06/20 10:59:10;;;;;;;8.37;5.73;;;26.70;91.70;;;;;;5000051;28;20192;-86
2023/06/20 11:01:36;;;;;;;9.55;5.90;;;26.80;91.70;;;;;;5008524;28;20657;-86
2023/06/20 11:04:06;;;;;;;8.70;6.22;;;26.80;91.70;;;;;;4992362;28;20050;-86
2023/06/20 11:06:32;;;;;;;8.48;6.05;;;26.90;91.60;;;;;;4992510;28;20507;-86
2023/06/20 11:08:58;;;;;;;10.82;6.75;;;27.00;91.50;;;;;;4992536;28;20539;-86
2023/06/20 11:11:39;;;;;;;9.52;6.78;;;27.10;92.00;;;;;;4976285;28;20074;-86
2023/06/20 11:14:09;;;;;;;10.55;6.72;;;27.30;91.30;;;;;;4979799;28;20121;-86
2023/06/20 11:16:35;;;;;;;11.27;7.25;;;27.40;91.30;;;;;;5049529;28;20514;-85
2023/06/20 11:19:01;;;;;;;10.82;6.90;;;27.60;88.40;;;;;;5049786;28;20148;-86
2023/06/20 11:21:27;;;;;;;9.98;6.35;;;27.60;87.50;;;;;;5049396;28;20445;-86
2023/06/20 11:24:04;;;;;;;10.43;6.60;;;27.70;88.80;;;;;;5051460;28;20437;-86
2023/06/20 11:26:35;;;;;;;10.13;6.50;;;27.90;89.30;;;;;;5045782;28;20509;-86
2023/06/20 11:29:01;;;;;;;10.10;7.55;;;27.90;88.30;;;;;;5072818;28;20087;-86
2023/06/20 11:31:27;;;;;;;11.32;6.85;;;28.00;86.00;;;;;;5074431;28;20127;-86
2023/06/20 11:34:06;;;;;;;10.63;7.40;;;28.00;87.00;;;;;;5057069;28;20529;-86
2023/06/20 11:36:36;;;;;;;11.50;7.43;;;28.10;86.00;;;;;;5071673;28;20036;-86
2023/06/20 11:39:13;;;;;;;9.60;6.97;;;28.00;86.20;;;;;;5073188;28;20429;-86
2023/06/20 11:41:39;;;;;;;9.15;6.82;;;28.10;85.30;;;;;;5053742;28;20036;-86
2023/06/20 11:44:23;;;;;;;9.85;6.85;;;28.10;85.80;;;;;;5067035;28;20050;-86
2023/06/20 11:46:49;;;;;;;10.18;6.63;;;28.20;85.50;;;;;;5070408;28;20032;-86
2023/06/20 11:49:30;;;;;;;9.52;6.85;;;28.10;86.20;;;;;;5054483;28;20033;-86
2023/06/20 11:51:55;;;;;;;8.82;6.40;;;28.20;84.70;;;;;;5054628;28;20048;-86
2023/06/20 11:54:22;;;;;;;9.95;6.30;;;28.30;84.00;;;;;;5055647;28;20498;-86
2023/06/20 11:56:53;;;;;;;9.43;6.25;;;28.50;82.10;;;;;;5072510;28;20036;-86
2023/06/20 11:59:23;;;;;;;9.75;5.80;;;28.60;82.30;;;;;;5072291;28;20072;-86
2023/06/20 12:01:49;;;;;;;8.85;5.60;;;28.70;80.30;;;;;;5069798;28;20123;-86
2023/06/20 12:04:19;;;;;;;9.15;5.28;;;28.60;78.30;;;;;;5055628;28;20215;-86
2023/06/20 12:06:48;;;;;;;10.65;5.88;;;28.60;78.20;;;;;;5055504;28;20059;-86
2023/06/20 12:09:16;;;;;;;8.70;5.57;;;28.70;78.40;;;;;;5054146;28;20517;-86
2023/06/20 12:11:55;;;;;;;9.18;5.95;;;28.70;78.10;;;;;;5055089;28;20123;-86
2023/06/20 12:14:22;;;;;;;10.82;5.75;;;28.70;77.80;;;;;;5072101;28;20037;-86
2023/06/20 12:16:51;;;;;;;8.82;6.05;;;28.70;78.40;;;;;;5072172;28;20493;-86
2023/06/20 12:19:19;;;;;;;9.10;6.38;;;28.80;78.30;;;;;;5071520;28;20041;-86
2023/06/20 12:21:45;;;;;;;8.30;5.25;;;28.80;77.70;;;;;;5055068;28;20037;-86
2023/06/20 12:24:15;;;;;;;10.90;6.03;;;28.80;77.30;;;;;;5072117;28;20036;-86
2023/06/20 12:26:42;;;;;;;7.53;5.00;;;28.80;77.70;;;;;;5054726;28;20529;-86
2023/06/20 12:29:08;;;;;;;9.20;5.60;;;28.70;77.20;;;;;;5055611;28;20044;-86
2023/06/20 12:31:34;;;;;;;11.15;5.65;;;28.80;76.10;;;;;;5071754;28;20037;-86
2023/06/20 12:33:59;;;;;;;8.40;5.57;;;28.80;77.00;;;;;;5071974;28;20043;-86
2023/06/20 12:36:25;;;;;;;8.02;5.35;;;29.00;76.60;;;;;;5071387;28;20123;-86